Baia De Cascais — CSHJ — position and weather

sailwx.info

Track history (hours):
 
Tides and Currents Weather Stations Pressure Air Temp Water Temp Dewpoint Dewpoint Depression Visibility Wind Speed Wind Dir Waves Ship Positions

Baia De Cascais

Last reported at 2018-Feb-04 15:02 UTC. Time now 2018-Feb-24 06:20 UTC.
Position N 38°42' W 009°14'.
Warning: this ship's position is 19 days out of date.

Length 16 m.

Type: Pilot. MMSI: 263670770.

Date/timePositionNaut miles runAvg speedWind from/ knotsBaromVisibWave heightAir tempDewpointWater temp
2018-Feb-04 15:02N 38°42' W 009°14'0 0.0
2018-Feb-04 15:00N 38°42' W 009°14'0 0.0
2018-Feb-04 14:29N 38°42' W 009°14'0 0.0
2018-Feb-04 14:00N 38°42' W 009°14'0 0.0
2018-Feb-04 13:30N 38°42' W 009°14'0 0.0
2018-Feb-04 13:00N 38°42' W 009°14'0 0.0
2018-Feb-04 12:27N 38°42' W 009°14'0 0.0
2018-Feb-04 12:00N 38°42' W 009°14'0 0.0
2018-Feb-04 11:23N 38°42' W 009°14'0 0.0
2018-Feb-04 10:00N 38°42' W 009°14'0 0.1
2018-Feb-04 06:45N 38°42' W 009°14'1 5.8
2018-Feb-04 06:30N 38°41' W 009°12'1 3.0
2018-Feb-04 06:01N 38°42' W 009°14'2 3.6
2018-Feb-04 05:30N 38°42' W 009°12'1 1.9
2018-Feb-04 05:00N 38°42' W 009°11'3 5.6
2018-Feb-04 04:30N 38°42' W 009°14'0 0.0
2018-Feb-04 04:00N 38°42' W 009°14'0 0.0
2018-Feb-04 03:28N 38°42' W 009°14'0 0.0
2018-Feb-04 02:59N 38°42' W 009°14'0 0.0
2018-Feb-04 02:30N 38°42' W 009°14'0 0.0
2018-Feb-04 01:58N 38°42' W 009°14'0 0.0
2018-Feb-04 01:30N 38°42' W 009°14'0 0.0
2018-Feb-04 01:00N 38°42' W 009°14'0 0.0
2018-Feb-04 00:30N 38°42' W 009°14'0 0.0
2018-Feb-04 00:00N 38°42' W 009°14'0 0.0
2018-Feb-03 23:28N 38°42' W 009°14'0 0.0
2018-Feb-03 22:59N 38°42' W 009°14'2 4.1
2018-Feb-03 22:30N 38°41' W 009°12'2 3.9
2018-Feb-03 22:00N 38°42' W 009°14'0 0.0
2018-Feb-03 21:30N 38°42' W 009°14'0 0.0
2018-Feb-03 21:00N 38°42' W 009°14'0 0.0
2018-Feb-03 20:30N 38°42' W 009°14'0 0.0
2018-Feb-03 20:00N 38°42' W 009°14'0 0.0
2018-Feb-03 06:16N 38°42' W 009°14'1 4.8
2018-Feb-03 06:00N 38°41' W 009°13'1 2.6
2018-Feb-03 05:30N 38°42' W 009°14'0 0.0
2018-Feb-03 04:59N 38°42' W 009°14'0 0.0
2018-Feb-03 03:56N 38°42' W 009°14'0 0.0
2018-Feb-03 03:30N 38°42' W 009°14'0 0.0
2018-Feb-03 02:00N 38°42' W 009°14'0 0.2
2018-Feb-03 01:30N 38°42' W 009°14'0 0.2
2018-Feb-03 01:00N 38°42' W 009°14'5 9.3
2018-Feb-03 00:26N 38°42' W 009°07'2 4.8
2018-Feb-02 23:56N 38°41' W 009°10'1 1.9
2018-Feb-02 23:28N 38°41' W 009°11'2 4.8
2018-Feb-02 22:59N 38°42' W 009°14'1 2.5
2018-Feb-02 22:30N 38°41' W 009°14'1 2.5
2018-Feb-02 21:59N 38°42' W 009°14'0 0.0
2018-Feb-02 21:17N 38°42' W 009°14'0 0.0
2018-Feb-02 21:00N 38°42' W 009°14'1 2.8
2018-Feb-02 20:31N 38°41' W 009°13'1 2.6
2018-Feb-02 20:00N 38°42' W 009°14'0 0.0
2018-Feb-02 19:00N 38°42' W 009°14'0 0.0
2018-Feb-02 18:30N 38°42' W 009°14'0 0.0
2018-Feb-02 17:58N 38°42' W 009°14'0 0.0
2018-Feb-02 17:30N 38°42' W 009°14'0 0.0
2018-Feb-02 16:57N 38°42' W 009°14'0 0.0
2018-Feb-02 16:29N 38°42' W 009°14'0 0.0
2018-Feb-02 15:28N 38°42' W 009°14'0 0.0
2018-Feb-02 14:28N 38°42' W 009°14'0 0.0
2018-Feb-02 13:59N 38°42' W 009°14'0 0.0
2018-Feb-02 13:30N 38°42' W 009°14'0 0.0
2018-Feb-02 13:00N 38°42' W 009°14'0 0.0
2018-Feb-02 12:26N 38°42' W 009°14'0 0.0
2018-Feb-02 11:59N 38°42' W 009°14'0 0.0
2018-Feb-02 11:22N 38°42' W 009°14'0 0.0
2018-Feb-02 10:53N 38°42' W 009°14'0 0.0
2018-Feb-02 10:28N 38°42' W 009°14'0 0.0
2018-Feb-02 09:59N 38°42' W 009°14'0 0.0
2018-Feb-02 09:30N 38°42' W 009°14'0 0.0
2018-Feb-02 09:01N 38°42' W 009°14'2 4.0
2018-Feb-02 08:28N 38°41' W 009°12'2 4.6
2018-Feb-02 08:00N 38°42' W 009°14'0 0.0
2018-Feb-02 07:30N 38°42' W 009°14'0 0.0
2018-Feb-02 06:59N 38°42' W 009°14'0 0.0
2018-Feb-02 06:30N 38°42' W 009°14'2 4.2
2018-Feb-02 06:00N 38°41' W 009°11'2 4.1
2018-Feb-02 05:28N 38°42' W 009°14'0 0.0
2018-Feb-02 04:59N 38°42' W 009°14'0 0.0
2018-Feb-02 04:30N 38°42' W 009°14'0 0.0
2018-Feb-02 04:00N 38°42' W 009°14'0 0.0
2018-Feb-02 03:30N 38°42' W 009°14'0 0.0
2018-Feb-02 02:55N 38°42' W 009°14'0 0.0
2018-Feb-02 02:30N 38°42' W 009°14'0 0.0
2018-Feb-02 02:00N 38°42' W 009°14'0 0.0
2018-Feb-02 01:28N 38°42' W 009°14'0 0.0
2018-Feb-02 01:00N 38°42' W 009°14'0 0.0
2018-Feb-02 00:28N 38°42' W 009°14'0 0.0
2018-Feb-02 00:00N 38°42' W 009°14'0 0.0
2018-Feb-01 23:30N 38°42' W 009°14'0 0.0
2018-Feb-01 23:00N 38°42' W 009°14'0 0.0
2018-Feb-01 21:59N 38°42' W 009°14'0 0.0
2018-Feb-01 21:30N 38°42' W 009°14'0 0.0
2018-Feb-01 19:24N 38°42' W 009°14'0 0.0
2018-Feb-01 19:00N 38°42' W 009°14'0 0.0
2018-Feb-01 18:24N 38°42' W 009°14'0 0.0
2018-Feb-01 17:58N 38°42' W 009°14'0 0.0
2018-Feb-01 17:29N 38°42' W 009°14'0 0.0
2018-Feb-01 17:00N 38°42' W 009°14'0 0.0
2018-Feb-01 16:29N 38°42' W 009°14'0 0.0
2018-Feb-01 15:55N 38°42' W 009°14'0 0.0
2018-Feb-01 15:29N 38°42' W 009°14'0 0.0
2018-Feb-01 14:55N 38°42' W 009°14'0 0.0
2018-Feb-01 13:28N 38°42' W 009°14'0 0.0
2018-Feb-01 12:59N 38°42' W 009°14'0 0.0
2018-Feb-01 12:26N 38°42' W 009°14'0 0.0
2018-Feb-01 11:59N 38°42' W 009°14'0 0.0
2018-Feb-01 10:59N 38°42' W 009°14'0 0.0
2018-Feb-01 10:30N 38°42' W 009°14'0 0.0
2018-Feb-01 09:50N 38°42' W 009°14'0 0.0
2018-Feb-01 09:30N 38°42' W 009°14'0 0.0
2018-Feb-01 09:00N 38°42' W 009°14'1 1.6
2018-Feb-01 08:30N 38°41' W 009°13'1 0.8
2018-Feb-01 07:29N 38°42' W 009°14'0 0.0
2018-Feb-01 07:00N 38°42' W 009°14'0 0.0
2018-Feb-01 06:30N 38°42' W 009°14'0 0.0
2018-Feb-01 06:00N 38°42' W 009°14'0 0.0
2018-Feb-01 05:30N 38°42' W 009°14'0 0.0
2018-Feb-01 05:00N 38°42' W 009°14'0 0.0
2018-Feb-01 04:30N 38°42' W 009°14'0 0.0
2018-Feb-01 03:59N 38°42' W 009°14'0 0.0
2018-Feb-01 02:59N 38°42' W 009°14'0 0.0
2018-Feb-01 02:27N 38°42' W 009°14'0 0.0
2018-Feb-01 02:00N 38°42' W 009°14'1 1.5
2018-Feb-01 01:30N 38°41' W 009°13'1 1.3
2018-Feb-01 00:58N 38°42' W 009°14'0 0.0
2018-Feb-01 00:30N 38°42' W 009°14'0 0.0
2018-Jan-31 23:55N 38°42' W 009°14'0 0.1
2018-Jan-31 22:59N 38°42' W 009°14'0 0.2
2018-Jan-31 22:30N 38°42' W 009°14'0 0.0
2018-Jan-31 21:00N 38°42' W 009°14'0 0.0
2018-Jan-31 20:12N 38°42' W 009°14'2 7.3
2018-Jan-31 20:00N 38°41' W 009°12'2 2.6
2018-Jan-31 19:26N 38°42' W 009°14'1 2.0
2018-Jan-31 19:00N 38°41' W 009°13'1 1.5
2018-Jan-31 18:30N 38°42' W 009°14'0 0.1
2018-Jan-31 17:53N 38°42' W 009°14'0 0.0
2018-Jan-31 17:24N 38°42' W 009°14'0 1.0
2018-Jan-31 17:00N 38°41' W 009°14'0 0.8
2018-Jan-31 16:30N 38°42' W 009°14'0 0.0
2018-Jan-31 16:00N 38°42' W 009°14'0 0.0
2018-Jan-31 15:30N 38°42' W 009°14'2 3.6
2018-Jan-31 15:00N 38°41' W 009°12'2 3.6
2018-Jan-31 14:30N 38°42' W 009°14'0 0.3
2018-Jan-31 13:00N 38°41' W 009°14'0 0.8
2018-Jan-31 12:29N 38°42' W 009°14'0 0.0
2018-Jan-31 11:59N 38°42' W 009°14'0 0.0
2018-Jan-31 11:18N 38°42' W 009°14'0 0.0
2018-Jan-31 10:56N 38°42' W 009°14'0 0.0
2018-Jan-31 10:26N 38°42' W 009°14'2 3.7
2018-Jan-31 09:59N 38°41' W 009°12'1 1.1
2018-Jan-31 09:30N 38°41' W 009°12'2 3.6
2018-Jan-31 08:58N 38°41' W 009°14'0 0.9
2018-Jan-31 08:29N 38°42' W 009°14'0 0.0
2018-Jan-31 07:58N 38°42' W 009°14'2 4.1
2018-Jan-31 07:23N 38°42' W 009°11'2 6.3
2018-Jan-31 07:00N 38°42' W 009°14'1 1.2
2018-Jan-31 06:31N 38°41' W 009°13'1 2.1
2018-Jan-31 05:59N 38°41' W 009°12'0 0.2
2018-Jan-31 05:30N 38°41' W 009°12'2 3.6
2018-Jan-31 05:00N 38°42' W 009°14'0 0.0
2018-Jan-31 04:29N 38°42' W 009°14'0 0.0
2018-Jan-31 03:58N 38°42' W 009°14'0 0.0
2018-Jan-31 03:30N 38°42' W 009°14'0 0.0
2018-Jan-31 02:54N 38°42' W 009°14'0 0.0
2018-Jan-31 02:22N 38°42' W 009°14'2 4.3
2018-Jan-31 02:00N 38°41' W 009°16'2 3.0
2018-Jan-31 01:28N 38°42' W 009°14'1 2.1
2018-Jan-31 00:58N 38°41' W 009°13'1 0.9
2018-Jan-30 23:58N 38°41' W 009°12'2 3.9
2018-Jan-30 23:28N 38°42' W 009°14'0 0.0
2018-Jan-30 22:59N 38°42' W 009°14'2 3.3
2018-Jan-30 22:30N 38°41' W 009°12'2 1.5
2018-Jan-30 21:28N 38°42' W 009°14'0 0.0
2018-Jan-30 20:54N 38°42' W 009°14'0 0.5
2018-Jan-30 20:30N 38°42' W 009°14'0 0.4
2018-Jan-30 19:59N 38°42' W 009°14'1 1.2
2018-Jan-30 19:31N 38°41' W 009°13'1 1.0
2018-Jan-30 19:00N 38°42' W 009°14'0 0.1
2018-Jan-30 18:28N 38°42' W 009°14'2 3.8
2018-Jan-30 18:00N 38°41' W 009°12'1 3.0
2018-Jan-30 17:30N 38°42' W 009°14'0 0.4
2018-Jan-30 17:00N 38°42' W 009°14'0 0.2
2018-Jan-30 16:25N 38°42' W 009°14'2 5.3
2018-Jan-30 15:59N 38°41' W 009°11'2 4.8
2018-Jan-30 15:30N 38°42' W 009°14'0 0.1
2018-Jan-30 14:59N 38°42' W 009°14'0 0.0
2018-Jan-30 14:23N 38°42' W 009°14'1 1.6
2018-Jan-30 13:30N 38°41' W 009°12'1 2.8
2018-Jan-30 12:59N 38°42' W 009°14'0 0.0
2018-Jan-30 12:30N 38°42' W 009°14'0 0.0
2018-Jan-30 11:55N 38°42' W 009°14'0 0.0
2018-Jan-30 11:28N 38°42' W 009°14'0 0.0
2018-Jan-30 10:30N 38°42' W 009°14'0 0.0
2018-Jan-30 09:30N 38°42' W 009°14'0 0.0
2018-Jan-30 08:58N 38°42' W 009°14'0 0.0
2018-Jan-30 08:28N 38°42' W 009°14'0 0.0
2018-Jan-30 07:57N 38°42' W 009°14'0 0.0
2018-Jan-30 07:30N 38°42' W 009°14'0 0.0
2018-Jan-30 07:00N 38°42' W 009°14'0 0.0
2018-Jan-30 06:30N 38°42' W 009°14'0 0.0
2018-Jan-30 06:00N 38°42' W 009°14'1 1.2
2018-Jan-30 05:30N 38°41' W 009°14'1 2.7
2018-Jan-30 04:59N 38°41' W 009°12'2 4.0
2018-Jan-30 04:29N 38°42' W 009°14'0 0.0
2018-Jan-30 03:58N 38°42' W 009°14'0 0.0
2018-Jan-30 03:27N 38°42' W 009°14'0 0.0
2018-Jan-30 02:59N 38°42' W 009°14'0 0.0
2018-Jan-30 02:30N 38°42' W 009°14'0 0.0
2018-Jan-30 01:57N 38°42' W 009°14'0 0.0
2018-Jan-30 01:28N 38°42' W 009°14'1 2.9
2018-Jan-30 01:00N 38°41' W 009°13'1 2.6
2018-Jan-30 00:30N 38°42' W 009°14'0 0.2
2018-Jan-30 00:00N 38°42' W 009°14'0 0.0
2018-Jan-29 23:23N 38°42' W 009°14'0 0.0
2018-Jan-29 22:52N 38°42' W 009°14'0 0.0
2018-Jan-29 22:30N 38°42' W 009°14'0 0.0
2018-Jan-29 21:58N 38°42' W 009°14'0 0.0
2018-Jan-29 21:23N 38°42' W 009°14'0 0.0
2018-Jan-29 21:00N 38°42' W 009°14'0 0.0
2018-Jan-29 20:27N 38°42' W 009°14'0 0.0
2018-Jan-29 19:57N 38°42' W 009°14'0 0.0
2018-Jan-29 19:30N 38°42' W 009°14'0 0.0
2018-Jan-29 19:00N 38°42' W 009°14'1 1.1
2018-Jan-29 18:30N 38°41' W 009°14'1 0.9
2018-Jan-29 17:55N 38°42' W 009°14'0 0.0
2018-Jan-29 17:21N 38°42' W 009°14'0 0.0
2018-Jan-29 16:58N 38°42' W 009°14'0 0.0
2018-Jan-29 16:30N 38°42' W 009°14'612.8
2018-Jan-29 16:00N 38°40' W 009°22'4 8.4
2018-Jan-29 15:30N 38°41' W 009°17'3 5.1
2018-Jan-29 15:00N 38°41' W 009°13'1 2.8
2018-Jan-29 14:29N 38°41' W 009°12'2 4.4
2018-Jan-29 14:00N 38°41' W 009°14'2 3.1
2018-Jan-29 13:30N 38°41' W 009°12'1 2.8
2018-Jan-29 13:00N 38°42' W 009°14'0 0.0
2018-Jan-28 22:52N 38°42' W 009°14'0 0.0
2018-Jan-28 22:30N 38°42' W 009°14'0 0.0
2018-Jan-28 21:58N 38°42' W 009°14'0 0.0
2018-Jan-28 21:30N 38°42' W 009°14'0 0.0
2018-Jan-28 21:00N 38°42' W 009°14'0 0.0
2018-Jan-28 20:30N 38°42' W 009°14'0 0.0
2018-Jan-28 20:00N 38°42' W 009°14'0 0.0
2018-Jan-28 19:29N 38°42' W 009°14'715.3
2018-Jan-28 18:59N 38°40' W 009°23'2 2.9
2018-Jan-28 18:12N 38°42' W 009°25'0 0.0
2018-Jan-28 17:46N 38°42' W 009°25'0 0.0
2018-Jan-28 17:19N 38°42' W 009°25'0 0.0
2018-Jan-28 14:37N 38°42' W 009°25'0 0.0
2018-Jan-28 10:32N 38°42' W 009°25'0 0.1
2018-Jan-28 10:12N 38°42' W 009°25'1 2.4
2018-Jan-28 09:57N 38°41' W 009°25'1 0.0
2018-Jan-27 07:29N 38°42' W 009°25'0 0.5
2018-Jan-27 06:53N 38°42' W 009°25'0 0.6
2018-Jan-27 06:27N 38°42' W 009°25'0 0.0
2018-Jan-27 05:52N 38°42' W 009°25'0 0.0
2018-Jan-27 05:16N 38°42' W 009°25'0 0.0
2018-Jan-27 04:59N 38°42' W 009°25'0 0.0
2018-Jan-27 04:19N 38°42' W 009°25'0 0.0
2018-Jan-27 02:33N 38°42' W 009°25'0 0.0
2018-Jan-27 02:17N 38°42' W 009°25'0 0.0
2018-Jan-27 01:56N 38°42' W 009°25'0 0.0
2018-Jan-27 01:25N 38°42' W 009°25'0 0.0
2018-Jan-27 00:59N 38°42' W 009°25'0 0.0
2018-Jan-27 00:27N 38°42' W 009°25'0 0.0
2018-Jan-26 23:54N 38°42' W 009°25'0 0.0
2018-Jan-26 23:29N 38°42' W 009°25'0 0.0
2018-Jan-26 22:59N 38°42' W 009°25'0 0.0
2018-Jan-26 22:30N 38°42' W 009°25'0 0.0
2018-Jan-26 21:47N 38°42' W 009°25'0 0.0
2018-Jan-26 21:26N 38°42' W 009°25'0 0.0
2018-Jan-26 20:53N 38°42' W 009°25'0 0.0
2018-Jan-26 20:25N 38°42' W 009°25'0 0.0
2018-Jan-26 19:57N 38°42' W 009°25'0 0.0
2018-Jan-26 19:25N 38°42' W 009°25'0 0.0
2018-Jan-26 18:58N 38°42' W 009°25'0 0.0
2018-Jan-26 18:30N 38°42' W 009°25'0 0.0
2018-Jan-26 17:59N 38°42' W 009°25'0 0.0
2018-Jan-26 17:15N 38°42' W 009°25'0 0.0
2018-Jan-26 16:54N 38°42' W 009°25'0 0.0
2018-Jan-26 16:27N 38°42' W 009°25'0 0.0
2018-Jan-26 15:41N 38°42' W 009°25'0 0.0
2018-Jan-26 15:18N 38°42' W 009°25'0 0.0
2018-Jan-26 14:55N 38°42' W 009°25'0 0.0
2018-Jan-26 14:30N 38°42' W 009°25'0 0.0
2018-Jan-26 13:58N 38°42' W 009°25'0 0.1
2018-Jan-26 13:30N 38°42' W 009°25'816.9
2018-Jan-26 13:00N 38°42' W 009°14'0 0.0
2018-Jan-26 12:28N 38°42' W 009°14'0 0.0
2018-Jan-26 11:58N 38°42' W 009°14'0 0.7
2018-Jan-26 11:29N 38°41' W 009°14'2 3.7
2018-Jan-26 11:00N 38°41' W 009°12'2 0.1
2018-Jan-25 20:58N 38°42' W 009°14'4 8.7
2018-Jan-25 20:30N 38°40' W 009°19'4 8.3
2018-Jan-25 20:00N 38°40' W 009°24'1 0.9
2018-Jan-25 19:18N 38°41' W 009°25'  
Track history (hours):
 
Tides and Currents Weather Stations Pressure Air Temp Water Temp Dewpoint Dewpoint Depression Visibility Wind Speed Wind Dir Waves Ship Positions

Baia De Cascais

Last reported at 2018-Feb-04 15:02 UTC. Time now 2018-Feb-24 06:20 UTC.
Position N 38°42' W 009°14'.
Warning: this ship's position is 19 days out of date.

Length 16 m.

Type: Pilot. MMSI: 263670770.

Date/timePositionNaut miles runAvg speedWind from/ knotsBaromVisibWave heightAir tempDewpointWater temp
2018-Feb-04 15:02N 38°42' W 009°14'0 0.0
2018-Feb-04 15:00N 38°42' W 009°14'0 0.0
2018-Feb-04 14:29N 38°42' W 009°14'0 0.0
2018-Feb-04 14:00N 38°42' W 009°14'0 0.0
2018-Feb-04 13:30N 38°42' W 009°14'0 0.0
2018-Feb-04 13:00N 38°42' W 009°14'0 0.0
2018-Feb-04 12:27N 38°42' W 009°14'0 0.0
2018-Feb-04 12:00N 38°42' W 009°14'0 0.0
2018-Feb-04 11:23N 38°42' W 009°14'0 0.0
2018-Feb-04 10:00N 38°42' W 009°14'0 0.1
2018-Feb-04 06:45N 38°42' W 009°14'1 5.8
2018-Feb-04 06:30N 38°41' W 009°12'1 3.0
2018-Feb-04 06:01N 38°42' W 009°14'2 3.6
2018-Feb-04 05:30N 38°42' W 009°12'1 1.9
2018-Feb-04 05:00N 38°42' W 009°11'3 5.6
2018-Feb-04 04:30N 38°42' W 009°14'0 0.0
2018-Feb-04 04:00N 38°42' W 009°14'0 0.0
2018-Feb-04 03:28N 38°42' W 009°14'0 0.0
2018-Feb-04 02:59N 38°42' W 009°14'0 0.0
2018-Feb-04 02:30N 38°42' W 009°14'0 0.0
2018-Feb-04 01:58N 38°42' W 009°14'0 0.0
2018-Feb-04 01:30N 38°42' W 009°14'0 0.0
2018-Feb-04 01:00N 38°42' W 009°14'0 0.0
2018-Feb-04 00:30N 38°42' W 009°14'0 0.0
2018-Feb-04 00:00N 38°42' W 009°14'0 0.0
2018-Feb-03 23:28N 38°42' W 009°14'0 0.0
2018-Feb-03 22:59N 38°42' W 009°14'2 4.1
2018-Feb-03 22:30N 38°41' W 009°12'2 3.9
2018-Feb-03 22:00N 38°42' W 009°14'0 0.0
2018-Feb-03 21:30N 38°42' W 009°14'0 0.0
2018-Feb-03 21:00N 38°42' W 009°14'0 0.0
2018-Feb-03 20:30N 38°42' W 009°14'0 0.0
2018-Feb-03 20:00N 38°42' W 009°14'0 0.0
2018-Feb-03 06:16N 38°42' W 009°14'1 4.8
2018-Feb-03 06:00N 38°41' W 009°13'1 2.6
2018-Feb-03 05:30N 38°42' W 009°14'0 0.0
2018-Feb-03 04:59N 38°42' W 009°14'0 0.0
2018-Feb-03 03:56N 38°42' W 009°14'0 0.0
2018-Feb-03 03:30N 38°42' W 009°14'0 0.0
2018-Feb-03 02:00N 38°42' W 009°14'0 0.2
2018-Feb-03 01:30N 38°42' W 009°14'0 0.2
2018-Feb-03 01:00N 38°42' W 009°14'5 9.3
2018-Feb-03 00:26N 38°42' W 009°07'2 4.8
2018-Feb-02 23:56N 38°41' W 009°10'1 1.9
2018-Feb-02 23:28N 38°41' W 009°11'2 4.8
2018-Feb-02 22:59N 38°42' W 009°14'1 2.5
2018-Feb-02 22:30N 38°41' W 009°14'1 2.5
2018-Feb-02 21:59N 38°42' W 009°14'0 0.0
2018-Feb-02 21:17N 38°42' W 009°14'0 0.0
2018-Feb-02 21:00N 38°42' W 009°14'1 2.8
2018-Feb-02 20:31N 38°41' W 009°13'1 2.6
2018-Feb-02 20:00N 38°42' W 009°14'0 0.0
2018-Feb-02 19:00N 38°42' W 009°14'0 0.0
2018-Feb-02 18:30N 38°42' W 009°14'0 0.0
2018-Feb-02 17:58N 38°42' W 009°14'0 0.0
2018-Feb-02 17:30N 38°42' W 009°14'0 0.0
2018-Feb-02 16:57N 38°42' W 009°14'0 0.0
2018-Feb-02 16:29N 38°42' W 009°14'0 0.0
2018-Feb-02 15:28N 38°42' W 009°14'0 0.0
2018-Feb-02 14:28N 38°42' W 009°14'0 0.0
2018-Feb-02 13:59N 38°42' W 009°14'0 0.0
2018-Feb-02 13:30N 38°42' W 009°14'0 0.0
2018-Feb-02 13:00N 38°42' W 009°14'0 0.0
2018-Feb-02 12:26N 38°42' W 009°14'0 0.0
2018-Feb-02 11:59N 38°42' W 009°14'0 0.0
2018-Feb-02 11:22N 38°42' W 009°14'0 0.0
2018-Feb-02 10:53N 38°42' W 009°14'0 0.0
2018-Feb-02 10:28N 38°42' W 009°14'0 0.0
2018-Feb-02 09:59N 38°42' W 009°14'0 0.0
2018-Feb-02 09:30N 38°42' W 009°14'0 0.0
2018-Feb-02 09:01N 38°42' W 009°14'2 4.0
2018-Feb-02 08:28N 38°41' W 009°12'2 4.6
2018-Feb-02 08:00N 38°42' W 009°14'0 0.0
2018-Feb-02 07:30N 38°42' W 009°14'0 0.0
2018-Feb-02 06:59N 38°42' W 009°14'0 0.0
2018-Feb-02 06:30N 38°42' W 009°14'2 4.2
2018-Feb-02 06:00N 38°41' W 009°11'2 4.1
2018-Feb-02 05:28N 38°42' W 009°14'0 0.0
2018-Feb-02 04:59N 38°42' W 009°14'0 0.0
2018-Feb-02 04:30N 38°42' W 009°14'0 0.0
2018-Feb-02 04:00N 38°42' W 009°14'0 0.0
2018-Feb-02 03:30N 38°42' W 009°14'0 0.0
2018-Feb-02 02:55N 38°42' W 009°14'0 0.0
2018-Feb-02 02:30N 38°42' W 009°14'0 0.0
2018-Feb-02 02:00N 38°42' W 009°14'0 0.0
2018-Feb-02 01:28N 38°42' W 009°14'0 0.0
2018-Feb-02 01:00N 38°42' W 009°14'0 0.0
2018-Feb-02 00:28N 38°42' W 009°14'0 0.0
2018-Feb-02 00:00N 38°42' W 009°14'0 0.0
2018-Feb-01 23:30N 38°42' W 009°14'0 0.0
2018-Feb-01 23:00N 38°42' W 009°14'0 0.0
2018-Feb-01 21:59N 38°42' W 009°14'0 0.0
2018-Feb-01 21:30N 38°42' W 009°14'0 0.0
2018-Feb-01 19:24N 38°42' W 009°14'0 0.0
2018-Feb-01 19:00N 38°42' W 009°14'0 0.0
2018-Feb-01 18:24N 38°42' W 009°14'0 0.0
2018-Feb-01 17:58N 38°42' W 009°14'0 0.0
2018-Feb-01 17:29N 38°42' W 009°14'0 0.0
2018-Feb-01 17:00N 38°42' W 009°14'0 0.0
2018-Feb-01 16:29N 38°42' W 009°14'0 0.0
2018-Feb-01 15:55N 38°42' W 009°14'0 0.0
2018-Feb-01 15:29N 38°42' W 009°14'0 0.0
2018-Feb-01 14:55N 38°42' W 009°14'0 0.0
2018-Feb-01 13:28N 38°42' W 009°14'0 0.0
2018-Feb-01 12:59N 38°42' W 009°14'0 0.0
2018-Feb-01 12:26N 38°42' W 009°14'0 0.0
2018-Feb-01 11:59N 38°42' W 009°14'0 0.0
2018-Feb-01 10:59N 38°42' W 009°14'0 0.0
2018-Feb-01 10:30N 38°42' W 009°14'0 0.0
2018-Feb-01 09:50N 38°42' W 009°14'0 0.0
2018-Feb-01 09:30N 38°42' W 009°14'0 0.0
2018-Feb-01 09:00N 38°42' W 009°14'1 1.6
2018-Feb-01 08:30N 38°41' W 009°13'1 0.8
2018-Feb-01 07:29N 38°42' W 009°14'0 0.0
2018-Feb-01 07:00N 38°42' W 009°14'0 0.0
2018-Feb-01 06:30N 38°42' W 009°14'0 0.0
2018-Feb-01 06:00N 38°42' W 009°14'0 0.0
2018-Feb-01 05:30N 38°42' W 009°14'0 0.0
2018-Feb-01 05:00N 38°42' W 009°14'0 0.0
2018-Feb-01 04:30N 38°42' W 009°14'0 0.0
2018-Feb-01 03:59N 38°42' W 009°14'0 0.0
2018-Feb-01 02:59N 38°42' W 009°14'0 0.0
2018-Feb-01 02:27N 38°42' W 009°14'0 0.0
2018-Feb-01 02:00N 38°42' W 009°14'1 1.5
2018-Feb-01 01:30N 38°41' W 009°13'1 1.3
2018-Feb-01 00:58N 38°42' W 009°14'0 0.0
2018-Feb-01 00:30N 38°42' W 009°14'0 0.0
2018-Jan-31 23:55N 38°42' W 009°14'0 0.1
2018-Jan-31 22:59N 38°42' W 009°14'0 0.2
2018-Jan-31 22:30N 38°42' W 009°14'0 0.0
2018-Jan-31 21:00N 38°42' W 009°14'0 0.0
2018-Jan-31 20:12N 38°42' W 009°14'2 7.3
2018-Jan-31 20:00N 38°41' W 009°12'2 2.6
2018-Jan-31 19:26N 38°42' W 009°14'1 2.0
2018-Jan-31 19:00N 38°41' W 009°13'1 1.5
2018-Jan-31 18:30N 38°42' W 009°14'0 0.1
2018-Jan-31 17:53N 38°42' W 009°14'0 0.0
2018-Jan-31 17:24N 38°42' W 009°14'0 1.0
2018-Jan-31 17:00N 38°41' W 009°14'0 0.8
2018-Jan-31 16:30N 38°42' W 009°14'0 0.0
2018-Jan-31 16:00N 38°42' W 009°14'0 0.0
2018-Jan-31 15:30N 38°42' W 009°14'2 3.6
2018-Jan-31 15:00N 38°41' W 009°12'2 3.6
2018-Jan-31 14:30N 38°42' W 009°14'0 0.3
2018-Jan-31 13:00N 38°41' W 009°14'0 0.8
2018-Jan-31 12:29N 38°42' W 009°14'0 0.0
2018-Jan-31 11:59N 38°42' W 009°14'0 0.0
2018-Jan-31 11:18N 38°42' W 009°14'0 0.0
2018-Jan-31 10:56N 38°42' W 009°14'0 0.0
2018-Jan-31 10:26N 38°42' W 009°14'2 3.7
2018-Jan-31 09:59N 38°41' W 009°12'1 1.1
2018-Jan-31 09:30N 38°41' W 009°12'2 3.6
2018-Jan-31 08:58N 38°41' W 009°14'0 0.9
2018-Jan-31 08:29N 38°42' W 009°14'0 0.0
2018-Jan-31 07:58N 38°42' W 009°14'2 4.1
2018-Jan-31 07:23N 38°42' W 009°11'2 6.3
2018-Jan-31 07:00N 38°42' W 009°14'1 1.2
2018-Jan-31 06:31N 38°41' W 009°13'1 2.1
2018-Jan-31 05:59N 38°41' W 009°12'0 0.2
2018-Jan-31 05:30N 38°41' W 009°12'2 3.6
2018-Jan-31 05:00N 38°42' W 009°14'0 0.0
2018-Jan-31 04:29N 38°42' W 009°14'0 0.0
2018-Jan-31 03:58N 38°42' W 009°14'0 0.0
2018-Jan-31 03:30N 38°42' W 009°14'0 0.0
2018-Jan-31 02:54N 38°42' W 009°14'0 0.0
2018-Jan-31 02:22N 38°42' W 009°14'2 4.3
2018-Jan-31 02:00N 38°41' W 009°16'2 3.0
2018-Jan-31 01:28N 38°42' W 009°14'1 2.1
2018-Jan-31 00:58N 38°41' W 009°13'1 0.9
2018-Jan-30 23:58N 38°41' W 009°12'2 3.9
2018-Jan-30 23:28N 38°42' W 009°14'0 0.0
2018-Jan-30 22:59N 38°42' W 009°14'2 3.3
2018-Jan-30 22:30N 38°41' W 009°12'2 1.5
2018-Jan-30 21:28N 38°42' W 009°14'0 0.0
2018-Jan-30 20:54N 38°42' W 009°14'0 0.5
2018-Jan-30 20:30N 38°42' W 009°14'0 0.4
2018-Jan-30 19:59N 38°42' W 009°14'1 1.2
2018-Jan-30 19:31N 38°41' W 009°13'1 1.0
2018-Jan-30 19:00N 38°42' W 009°14'0 0.1
2018-Jan-30 18:28N 38°42' W 009°14'2 3.8
2018-Jan-30 18:00N 38°41' W 009°12'1 3.0
2018-Jan-30 17:30N 38°42' W 009°14'0 0.4
2018-Jan-30 17:00N 38°42' W 009°14'0 0.2
2018-Jan-30 16:25N 38°42' W 009°14'2 5.3
2018-Jan-30 15:59N 38°41' W 009°11'2 4.8
2018-Jan-30 15:30N 38°42' W 009°14'0 0.1
2018-Jan-30 14:59N 38°42' W 009°14'0 0.0
2018-Jan-30 14:23N 38°42' W 009°14'1 1.6
2018-Jan-30 13:30N 38°41' W 009°12'1 2.8
2018-Jan-30 12:59N 38°42' W 009°14'0 0.0
2018-Jan-30 12:30N 38°42' W 009°14'0 0.0
2018-Jan-30 11:55N 38°42' W 009°14'0 0.0
2018-Jan-30 11:28N 38°42' W 009°14'0 0.0
2018-Jan-30 10:30N 38°42' W 009°14'0 0.0
2018-Jan-30 09:30N 38°42' W 009°14'0 0.0
2018-Jan-30 08:58N 38°42' W 009°14'0 0.0
2018-Jan-30 08:28N 38°42' W 009°14'0 0.0
2018-Jan-30 07:57N 38°42' W 009°14'0 0.0
2018-Jan-30 07:30N 38°42' W 009°14'0 0.0
2018-Jan-30 07:00N 38°42' W 009°14'0 0.0
2018-Jan-30 06:30N 38°42' W 009°14'0 0.0
2018-Jan-30 06:00N 38°42' W 009°14'1 1.2
2018-Jan-30 05:30N 38°41' W 009°14'1 2.7
2018-Jan-30 04:59N 38°41' W 009°12'2 4.0
2018-Jan-30 04:29N 38°42' W 009°14'0 0.0
2018-Jan-30 03:58N 38°42' W 009°14'0 0.0
2018-Jan-30 03:27N 38°42' W 009°14'0 0.0
2018-Jan-30 02:59N 38°42' W 009°14'0 0.0
2018-Jan-30 02:30N 38°42' W 009°14'0 0.0
2018-Jan-30 01:57N 38°42' W 009°14'0 0.0
2018-Jan-30 01:28N 38°42' W 009°14'1 2.9
2018-Jan-30 01:00N 38°41' W 009°13'1 2.6
2018-Jan-30 00:30N 38°42' W 009°14'0 0.2
2018-Jan-30 00:00N 38°42' W 009°14'0 0.0
2018-Jan-29 23:23N 38°42' W 009°14'0 0.0
2018-Jan-29 22:52N 38°42' W 009°14'0 0.0
2018-Jan-29 22:30N 38°42' W 009°14'0 0.0
2018-Jan-29 21:58N 38°42' W 009°14'0 0.0
2018-Jan-29 21:23N 38°42' W 009°14'0 0.0
2018-Jan-29 21:00N 38°42' W 009°14'0 0.0
2018-Jan-29 20:27N 38°42' W 009°14'0 0.0
2018-Jan-29 19:57N 38°42' W 009°14'0 0.0
2018-Jan-29 19:30N 38°42' W 009°14'0 0.0
2018-Jan-29 19:00N 38°42' W 009°14'1 1.1
2018-Jan-29 18:30N 38°41' W 009°14'1 0.9
2018-Jan-29 17:55N 38°42' W 009°14'0 0.0
2018-Jan-29 17:21N 38°42' W 009°14'0 0.0
2018-Jan-29 16:58N 38°42' W 009°14'0 0.0
2018-Jan-29 16:30N 38°42' W 009°14'612.8
2018-Jan-29 16:00N 38°40' W 009°22'4 8.4
2018-Jan-29 15:30N 38°41' W 009°17'3 5.1
2018-Jan-29 15:00N 38°41' W 009°13'1 2.8
2018-Jan-29 14:29N 38°41' W 009°12'2 4.4
2018-Jan-29 14:00N 38°41' W 009°14'2 3.1
2018-Jan-29 13:30N 38°41' W 009°12'1 2.8
2018-Jan-29 13:00N 38°42' W 009°14'0 0.0
2018-Jan-28 22:52N 38°42' W 009°14'0 0.0
2018-Jan-28 22:30N 38°42' W 009°14'0 0.0
2018-Jan-28 21:58N 38°42' W 009°14'0 0.0
2018-Jan-28 21:30N 38°42' W 009°14'0 0.0
2018-Jan-28 21:00N 38°42' W 009°14'0 0.0
2018-Jan-28 20:30N 38°42' W 009°14'0 0.0
2018-Jan-28 20:00N 38°42' W 009°14'0 0.0
2018-Jan-28 19:29N 38°42' W 009°14'715.3
2018-Jan-28 18:59N 38°40' W 009°23'2 2.9
2018-Jan-28 18:12N 38°42' W 009°25'0 0.0
2018-Jan-28 17:46N 38°42' W 009°25'0 0.0
2018-Jan-28 17:19N 38°42' W 009°25'0 0.0
2018-Jan-28 14:37N 38°42' W 009°25'0 0.0
2018-Jan-28 10:32N 38°42' W 009°25'0 0.1
2018-Jan-28 10:12N 38°42' W 009°25'1 2.4
2018-Jan-28 09:57N 38°41' W 009°25'1 0.0
2018-Jan-27 07:29N 38°42' W 009°25'0 0.5
2018-Jan-27 06:53N 38°42' W 009°25'0 0.6
2018-Jan-27 06:27N 38°42' W 009°25'0 0.0
2018-Jan-27 05:52N 38°42' W 009°25'0 0.0
2018-Jan-27 05:16N 38°42' W 009°25'0 0.0
2018-Jan-27 04:59N 38°42' W 009°25'0 0.0
2018-Jan-27 04:19N 38°42' W 009°25'0 0.0
2018-Jan-27 02:33N 38°42' W 009°25'0 0.0
2018-Jan-27 02:17N 38°42' W 009°25'0 0.0
2018-Jan-27 01:56N 38°42' W 009°25'0 0.0
2018-Jan-27 01:25N 38°42' W 009°25'0 0.0
2018-Jan-27 00:59N 38°42' W 009°25'0 0.0
2018-Jan-27 00:27N 38°42' W 009°25'0 0.0
2018-Jan-26 23:54N 38°42' W 009°25'0 0.0
2018-Jan-26 23:29N 38°42' W 009°25'0 0.0
2018-Jan-26 22:59N 38°42' W 009°25'0 0.0
2018-Jan-26 22:30N 38°42' W 009°25'0 0.0
2018-Jan-26 21:47N 38°42' W 009°25'0 0.0
2018-Jan-26 21:26N 38°42' W 009°25'0 0.0
2018-Jan-26 20:53N 38°42' W 009°25'0 0.0
2018-Jan-26 20:25N 38°42' W 009°25'0 0.0
2018-Jan-26 19:57N 38°42' W 009°25'0 0.0
2018-Jan-26 19:25N 38°42' W 009°25'0 0.0
2018-Jan-26 18:58N 38°42' W 009°25'0 0.0
2018-Jan-26 18:30N 38°42' W 009°25'0 0.0
2018-Jan-26 17:59N 38°42' W 009°25'0 0.0
2018-Jan-26 17:15N 38°42' W 009°25'0 0.0
2018-Jan-26 16:54N 38°42' W 009°25'0 0.0
2018-Jan-26 16:27N 38°42' W 009°25'0 0.0
2018-Jan-26 15:41N 38°42' W 009°25'0 0.0
2018-Jan-26 15:18N 38°42' W 009°25'0 0.0
2018-Jan-26 14:55N 38°42' W 009°25'0 0.0
2018-Jan-26 14:30N 38°42' W 009°25'0 0.0
2018-Jan-26 13:58N 38°42' W 009°25'0 0.1
2018-Jan-26 13:30N 38°42' W 009°25'816.9
2018-Jan-26 13:00N 38°42' W 009°14'0 0.0
2018-Jan-26 12:28N 38°42' W 009°14'0 0.0
2018-Jan-26 11:58N 38°42' W 009°14'0 0.7
2018-Jan-26 11:29N 38°41' W 009°14'2 3.7
2018-Jan-26 11:00N 38°41' W 009°12'2 0.1
2018-Jan-25 20:58N 38°42' W 009°14'4 8.7
2018-Jan-25 20:30N 38°40' W 009°19'4 8.3
2018-Jan-25 20:00N 38°40' W 009°24'1 0.9
2018-Jan-25 19:18N 38°41' W 009°25'  

Dump ship's entire track history